sensor_id;sensor_type;location;lat;lon;timestamp;P1;durP1;ratioP1;P2;durP2;ratioP2
13457;SDS011;6801;53.018;11.560;2023-07-31T00:00:15;3.78;;;1.00;;
13457;SDS011;6801;53.018;11.560;2023-07-31T00:02:43;5.03;;;1.05;;
13457;SDS011;6801;53.018;11.560;2023-07-31T00:05:11;4.03;;;1.20;;
13457;SDS011;6801;53.018;11.560;2023-07-31T00:07:38;2.53;;;0.88;;
13457;SDS011;6801;53.018;11.560;2023-07-31T00:10:06;3.80;;;1.33;;
13457;SDS011;6801;53.018;11.560;2023-07-31T00:12:33;5.40;;;1.23;;
13457;SDS011;6801;53.018;11.560;2023-07-31T00:15:00;2.90;;;1.02;;
13457;SDS011;6801;53.018;11.560;2023-07-31T00:17:28;4.82;;;1.15;;
13457;SDS011;6801;53.018;11.560;2023-07-31T00:19:55;2.47;;;1.00;;
13457;SDS011;6801;53.018;11.560;2023-07-31T00:22:23;5.65;;;1.15;;
13457;SDS011;6801;53.018;11.560;2023-07-31T00:24:51;2.00;;;0.90;;
13457;SDS011;6801;53.018;11.560;2023-07-31T00:27:18;3.38;;;0.90;;
13457;SDS011;6801;53.018;11.560;2023-07-31T00:29:45;4.07;;;0.88;;
13457;SDS011;6801;53.018;11.560;2023-07-31T00:32:12;2.45;;;1.00;;
13457;SDS011;6801;53.018;11.560;2023-07-31T00:34:39;3.17;;;1.05;;
13457;SDS011;6801;53.018;11.560;2023-07-31T00:37:06;5.32;;;1.38;;
13457;SDS011;6801;53.018;11.560;2023-07-31T00:39:35;2.97;;;1.02;;
13457;SDS011;6801;53.018;11.560;2023-07-31T00:42:02;6.07;;;1.08;;
13457;SDS011;6801;53.018;11.560;2023-07-31T00:44:30;6.97;;;1.08;;
13457;SDS011;6801;53.018;11.560;2023-07-31T00:46:57;2.08;;;0.80;;
13457;SDS011;6801;53.018;11.560;2023-07-31T00:49:24;5.60;;;1.25;;
13457;SDS011;6801;53.018;11.560;2023-07-31T00:51:52;2.70;;;0.93;;
13457;SDS011;6801;53.018;11.560;2023-07-31T00:54:19;3.30;;;1.23;;
13457;SDS011;6801;53.018;11.560;2023-07-31T00:56:48;8.30;;;1.38;;
13457;SDS011;6801;53.018;11.560;2023-07-31T00:59:21;2.70;;;0.77;;
13457;SDS011;6801;53.018;11.560;2023-07-31T01:01:48;4.03;;;0.90;;
13457;SDS011;6801;53.018;11.560;2023-07-31T01:04:15;3.85;;;1.00;;
13457;SDS011;6801;53.018;11.560;2023-07-31T01:06:44;3.50;;;1.10;;
13457;SDS011;6801;53.018;11.560;2023-07-31T01:09:16;2.75;;;0.82;;
13457;SDS011;6801;53.018;11.560;2023-07-31T01:11:56;4.40;;;1.00;;
13457;SDS011;6801;53.018;11.560;2023-07-31T01:14:25;3.20;;;0.98;;
13457;SDS011;6801;53.018;11.560;2023-07-31T01:16:52;3.80;;;1.15;;
13457;SDS011;6801;53.018;11.560;2023-07-31T01:19:21;3.63;;;1.23;;
13457;SDS011;6801;53.018;11.560;2023-07-31T01:21:57;4.07;;;0.90;;
13457;SDS011;6801;53.018;11.560;2023-07-31T01:24:40;4.47;;;1.20;;
13457;SDS011;6801;53.018;11.560;2023-07-31T01:27:21;4.65;;;1.20;;
13457;SDS011;6801;53.018;11.560;2023-07-31T01:29:53;3.40;;;1.08;;
13457;SDS011;6801;53.018;11.560;2023-07-31T01:32:36;3.13;;;0.80;;
13457;SDS011;6801;53.018;11.560;2023-07-31T01:35:06;6.25;;;1.00;;
13457;SDS011;6801;53.018;11.560;2023-07-31T01:37:33;4.55;;;0.90;;
13457;SDS011;6801;53.018;11.560;2023-07-31T01:40:01;5.47;;;1.00;;
13457;SDS011;6801;53.018;11.560;2023-07-31T01:42:29;3.80;;;0.85;;
13457;SDS011;6801;53.018;11.560;2023-07-31T01:44:56;4.82;;;1.00;;
13457;SDS011;6801;53.018;11.560;2023-07-31T01:47:24;5.28;;;1.20;;
13457;SDS011;6801;53.018;11.560;2023-07-31T01:49:51;5.00;;;1.13;;
13457;SDS011;6801;53.018;11.560;2023-07-31T01:52:18;3.45;;;0.88;;
13457;SDS011;6801;53.018;11.560;2023-07-31T01:54:45;3.00;;;0.85;;
13457;SDS011;6801;53.018;11.560;2023-07-31T01:57:12;2.85;;;1.45;;
13457;SDS011;6801;53.018;11.560;2023-07-31T01:59:40;4.47;;;1.10;;
13457;SDS011;6801;53.018;11.560;2023-07-31T02:02:08;9.63;;;1.17;;
13457;SDS011;6801;53.018;11.560;2023-07-31T02:04:35;2.90;;;0.88;;
13457;SDS011;6801;53.018;11.560;2023-07-31T02:07:03;5.53;;;0.95;;
13457;SDS011;6801;53.018;11.560;2023-07-31T02:09:32;3.05;;;1.20;;
13457;SDS011;6801;53.018;11.560;2023-07-31T02:11:59;5.68;;;1.20;;
13457;SDS011;6801;53.018;11.560;2023-07-31T02:14:26;2.53;;;0.80;;
13457;SDS011;6801;53.018;11.560;2023-07-31T02:16:54;3.45;;;0.80;;
13457;SDS011;6801;53.018;11.560;2023-07-31T02:19:21;3.03;;;0.98;;
13457;SDS011;6801;53.018;11.560;2023-07-31T02:21:48;3.15;;;1.20;;
13457;SDS011;6801;53.018;11.560;2023-07-31T02:24:15;4.95;;;1.15;;
13457;SDS011;6801;53.018;11.560;2023-07-31T02:26:42;3.63;;;1.30;;
13457;SDS011;6801;53.018;11.560;2023-07-31T02:29:09;3.90;;;1.35;;
13457;SDS011;6801;53.018;11.560;2023-07-31T02:31:36;3.08;;;1.15;;
13457;SDS011;6801;53.018;11.560;2023-07-31T02:34:06;2.35;;;1.20;;
13457;SDS011;6801;53.018;11.560;2023-07-31T02:36:33;3.58;;;1.20;;
13457;SDS011;6801;53.018;11.560;2023-07-31T02:39:00;3.47;;;1.70;;
13457;SDS011;6801;53.018;11.560;2023-07-31T02:41:27;6.30;;;1.50;;
13457;SDS011;6801;53.018;11.560;2023-07-31T02:43:54;1.88;;;1.10;;
13457;SDS011;6801;53.018;11.560;2023-07-31T02:46:21;2.63;;;1.55;;
13457;SDS011;6801;53.018;11.560;2023-07-31T02:48:49;3.67;;;1.40;;
13457;SDS011;6801;53.018;11.560;2023-07-31T02:51:18;2.63;;;1.10;;
13457;SDS011;6801;53.018;11.560;2023-07-31T02:53:46;3.17;;;1.40;;
13457;SDS011;6801;53.018;11.560;2023-07-31T02:56:14;5.10;;;1.30;;
13457;SDS011;6801;53.018;11.560;2023-07-31T02:58:41;2.72;;;1.55;;
13457;SDS011;6801;53.018;11.560;2023-07-31T03:01:09;3.25;;;1.40;;
13457;SDS011;6801;53.018;11.560;2023-07-31T03:03:36;3.97;;;1.45;;
13457;SDS011;6801;53.018;11.560;2023-07-31T03:06:03;3.40;;;1.20;;
13457;SDS011;6801;53.018;11.560;2023-07-31T03:08:31;3.60;;;1.02;;
13457;SDS011;6801;53.018;11.560;2023-07-31T03:10:58;6.00;;;1.45;;
13457;SDS011;6801;53.018;11.560;2023-07-31T03:13:26;4.63;;;1.45;;
13457;SDS011;6801;53.018;11.560;2023-07-31T03:15:53;4.80;;;1.30;;
13457;SDS011;6801;53.018;11.560;2023-07-31T03:18:20;3.97;;;1.65;;
13457;SDS011;6801;53.018;11.560;2023-07-31T03:20:47;2.72;;;1.10;;
13457;SDS011;6801;53.018;11.560;2023-07-31T03:23:15;3.75;;;1.60;;
13457;SDS011;6801;53.018;11.560;2023-07-31T03:25:56;3.60;;;1.33;;
13457;SDS011;6801;53.018;11.560;2023-07-31T03:28:27;6.93;;;1.83;;
13457;SDS011;6801;53.018;11.560;2023-07-31T03:30:54;4.53;;;1.50;;
13457;SDS011;6801;53.018;11.560;2023-07-31T03:33:21;2.92;;;1.33;;
13457;SDS011;6801;53.018;11.560;2023-07-31T03:35:49;2.33;;;1.00;;
13457;SDS011;6801;53.018;11.560;2023-07-31T03:38:17;4.70;;;1.40;;
13457;SDS011;6801;53.018;11.560;2023-07-31T03:40:44;2.88;;;1.08;;
13457;SDS011;6801;53.018;11.560;2023-07-31T03:43:12;5.45;;;1.70;;
13457;SDS011;6801;53.018;11.560;2023-07-31T03:45:39;3.78;;;1.40;;
13457;SDS011;6801;53.018;11.560;2023-07-31T03:48:07;3.13;;;1.50;;
13457;SDS011;6801;53.018;11.560;2023-07-31T03:50:34;3.08;;;1.10;;
13457;SDS011;6801;53.018;11.560;2023-07-31T03:53:01;3.80;;;1.33;;
13457;SDS011;6801;53.018;11.560;2023-07-31T03:55:28;3.08;;;1.10;;
13457;SDS011;6801;53.018;11.560;2023-07-31T03:57:55;6.13;;;1.58;;
13457;SDS011;6801;53.018;11.560;2023-07-31T04:00:24;5.07;;;1.70;;
13457;SDS011;6801;53.018;11.560;2023-07-31T04:02:51;3.03;;;1.10;;
13457;SDS011;6801;53.018;11.560;2023-07-31T04:05:18;6.75;;;1.40;;
13457;SDS011;6801;53.018;11.560;2023-07-31T04:07:45;3.03;;;1.23;;
13457;SDS011;6801;53.018;11.560;2023-07-31T04:10:12;3.78;;;1.98;;
13457;SDS011;6801;53.018;11.560;2023-07-31T04:12:40;1.60;;;1.20;;
13457;SDS011;6801;53.018;11.560;2023-07-31T04:15:07;2.53;;;1.30;;
13457;SDS011;6801;53.018;11.560;2023-07-31T04:17:36;4.78;;;1.30;;
13457;SDS011;6801;53.018;11.560;2023-07-31T04:20:03;4.90;;;1.27;;
13457;SDS011;6801;53.018;11.560;2023-07-31T04:22:31;3.58;;;1.40;;
13457;SDS011;6801;53.018;11.560;2023-07-31T04:24:59;7.00;;;1.58;;
13457;SDS011;6801;53.018;11.560;2023-07-31T04:27:26;5.57;;;1.60;;
13457;SDS011;6801;53.018;11.560;2023-07-31T04:29:53;2.33;;;1.17;;
13457;SDS011;6801;53.018;11.560;2023-07-31T04:32:20;4.00;;;1.23;;
13457;SDS011;6801;53.018;11.560;2023-07-31T04:34:49;3.00;;;1.25;;
13457;SDS011;6801;53.018;11.560;2023-07-31T04:37:16;3.03;;;1.08;;
13457;SDS011;6801;53.018;11.560;2023-07-31T04:39:43;3.33;;;1.23;;
13457;SDS011;6801;53.018;11.560;2023-07-31T04:42:10;3.42;;;1.33;;
13457;SDS011;6801;53.018;11.560;2023-07-31T04:44:37;6.18;;;1.30;;
13457;SDS011;6801;53.018;11.560;2023-07-31T04:47:04;6.32;;;1.60;;
13457;SDS011;6801;53.018;11.560;2023-07-31T04:49:31;2.50;;;1.17;;
13457;SDS011;6801;53.018;11.560;2023-07-31T04:52:00;3.08;;;1.35;;
13457;SDS011;6801;53.018;11.560;2023-07-31T04:54:27;5.00;;;1.48;;
13457;SDS011;6801;53.018;11.560;2023-07-31T04:56:59;4.55;;;1.40;;
13457;SDS011;6801;53.018;11.560;2023-07-31T04:59:26;6.05;;;1.27;;
13457;SDS011;6801;53.018;11.560;2023-07-31T05:01:53;3.95;;;0.93;;
13457;SDS011;6801;53.018;11.560;2023-07-31T05:04:20;3.53;;;1.35;;
13457;SDS011;6801;53.018;11.560;2023-07-31T05:06:47;5.85;;;1.45;;
13457;SDS011;6801;53.018;11.560;2023-07-31T05:09:15;3.78;;;1.10;;
13457;SDS011;6801;53.018;11.560;2023-07-31T05:11:43;6.28;;;0.80;;
13457;SDS011;6801;53.018;11.560;2023-07-31T05:14:10;4.07;;;1.30;;
13457;SDS011;6801;53.018;11.560;2023-07-31T05:16:37;3.50;;;1.00;;
13457;SDS011;6801;53.018;11.560;2023-07-31T05:19:04;5.07;;;1.20;;
13457;SDS011;6801;53.018;11.560;2023-07-31T05:21:32;3.85;;;1.00;;
13457;SDS011;6801;53.018;11.560;2023-07-31T05:23:59;4.35;;;1.20;;
13457;SDS011;6801;53.018;11.560;2023-07-31T05:26:28;3.00;;;1.20;;
13457;SDS011;6801;53.018;11.560;2023-07-31T05:28:55;4.35;;;1.77;;
13457;SDS011;6801;53.018;11.560;2023-07-31T05:31:23;4.70;;;1.50;;
13457;SDS011;6801;53.018;11.560;2023-07-31T05:33:51;2.67;;;0.95;;
13457;SDS011;6801;53.018;11.560;2023-07-31T05:36:18;5.22;;;1.05;;
13457;SDS011;6801;53.018;11.560;2023-07-31T05:38:45;4.45;;;1.17;;
13457;SDS011;6801;53.018;11.560;2023-07-31T05:41:12;3.30;;;1.20;;
13457;SDS011;6801;53.018;11.560;2023-07-31T05:43:41;4.20;;;1.13;;
13457;SDS011;6801;53.018;11.560;2023-07-31T05:46:08;3.92;;;1.25;;
13457;SDS011;6801;53.018;11.560;2023-07-31T05:48:37;5.43;;;1.05;;
13457;SDS011;6801;53.018;11.560;2023-07-31T05:51:04;5.70;;;1.05;;
13457;SDS011;6801;53.018;11.560;2023-07-31T05:53:32;2.92;;;1.20;;
13457;SDS011;6801;53.018;11.560;2023-07-31T05:56:00;2.80;;;1.15;;
13457;SDS011;6801;53.018;11.560;2023-07-31T05:58:28;2.58;;;1.30;;
13457;SDS011;6801;53.018;11.560;2023-07-31T06:00:57;3.78;;;1.10;;
13457;SDS011;6801;53.018;11.560;2023-07-31T06:03:25;4.15;;;1.00;;
13457;SDS011;6801;53.018;11.560;2023-07-31T06:05:53;3.08;;;1.10;;
13457;SDS011;6801;53.018;11.560;2023-07-31T06:08:21;3.20;;;1.30;;
13457;SDS011;6801;53.018;11.560;2023-07-31T06:10:48;2.72;;;1.15;;
13457;SDS011;6801;53.018;11.560;2023-07-31T06:13:16;2.65;;;1.02;;
13457;SDS011;6801;53.018;11.560;2023-07-31T06:15:44;2.50;;;1.05;;
13457;SDS011;6801;53.018;11.560;2023-07-31T06:18:13;2.40;;;0.80;;
13457;SDS011;6801;53.018;11.560;2023-07-31T06:20:41;3.22;;;0.90;;
13457;SDS011;6801;53.018;11.560;2023-07-31T06:23:08;3.13;;;0.90;;
13457;SDS011;6801;53.018;11.560;2023-07-31T06:25:36;4.07;;;1.10;;
13457;SDS011;6801;53.018;11.560;2023-07-31T06:28:04;4.03;;;1.45;;
13457;SDS011;6801;53.018;11.560;2023-07-31T06:30:31;1.60;;;0.75;;
13457;SDS011;6801;53.018;11.560;2023-07-31T06:32:59;3.10;;;0.90;;
13457;SDS011;6801;53.018;11.560;2023-07-31T06:35:28;3.03;;;1.10;;
13457;SDS011;6801;53.018;11.560;2023-07-31T06:37:56;3.88;;;1.20;;
13457;SDS011;6801;53.018;11.560;2023-07-31T06:40:23;2.35;;;0.93;;
13457;SDS011;6801;53.018;11.560;2023-07-31T06:42:50;2.53;;;1.00;;
13457;SDS011;6801;53.018;11.560;2023-07-31T06:45:17;3.00;;;1.00;;
13457;SDS011;6801;53.018;11.560;2023-07-31T06:47:44;3.30;;;1.05;;
13457;SDS011;6801;53.018;11.560;2023-07-31T06:50:12;1.85;;;0.75;;
13457;SDS011;6801;53.018;11.560;2023-07-31T06:52:43;4.88;;;0.77;;
13457;SDS011;6801;53.018;11.560;2023-07-31T06:55:18;2.00;;;0.93;;
13457;SDS011;6801;53.018;11.560;2023-07-31T06:57:46;1.05;;;0.65;;
13457;SDS011;6801;53.018;11.560;2023-07-31T07:00:15;1.40;;;0.75;;
13457;SDS011;6801;53.018;11.560;2023-07-31T07:02:42;1.83;;;0.80;;
13457;SDS011;6801;53.018;11.560;2023-07-31T07:05:09;3.05;;;0.88;;
13457;SDS011;6801;53.018;11.560;2023-07-31T07:07:37;2.75;;;0.95;;
13457;SDS011;6801;53.018;11.560;2023-07-31T07:10:06;1.92;;;1.27;;
13457;SDS011;6801;53.018;11.560;2023-07-31T07:12:34;2.08;;;0.90;;
13457;SDS011;6801;53.018;11.560;2023-07-31T07:15:02;2.03;;;0.70;;
13457;SDS011;6801;53.018;11.560;2023-07-31T07:17:30;2.88;;;0.75;;
13457;SDS011;6801;53.018;11.560;2023-07-31T07:19:57;3.00;;;0.80;;
13457;SDS011;6801;53.018;11.560;2023-07-31T07:22:24;2.85;;;1.25;;
13457;SDS011;6801;53.018;11.560;2023-07-31T07:24:52;2.03;;;0.68;;
13457;SDS011;6801;53.018;11.560;2023-07-31T07:27:21;1.80;;;0.80;;
13457;SDS011;6801;53.018;11.560;2023-07-31T07:29:49;1.95;;;0.70;;
13457;SDS011;6801;53.018;11.560;2023-07-31T07:32:17;1.10;;;0.55;;
13457;SDS011;6801;53.018;11.560;2023-07-31T07:34:44;2.03;;;0.90;;
13457;SDS011;6801;53.018;11.560;2023-07-31T07:37:11;1.30;;;0.60;;
13457;SDS011;6801;53.018;11.560;2023-07-31T07:39:38;0.90;;;0.57;;
13457;SDS011;6801;53.018;11.560;2023-07-31T07:42:05;1.88;;;0.73;;
13457;SDS011;6801;53.018;11.560;2023-07-31T07:44:34;2.92;;;0.68;;
13457;SDS011;6801;53.018;11.560;2023-07-31T07:47:01;1.77;;;0.60;;
13457;SDS011;6801;53.018;11.560;2023-07-31T07:49:31;1.63;;;0.77;;
13457;SDS011;6801;53.018;11.560;2023-07-31T07:51:59;1.73;;;0.68;;
13457;SDS011;6801;53.018;11.560;2023-07-31T07:54:26;2.70;;;0.80;;
13457;SDS011;6801;53.018;11.560;2023-07-31T07:56:53;1.23;;;0.70;;
13457;SDS011;6801;53.018;11.560;2023-07-31T07:59:20;2.15;;;0.70;;
13457;SDS011;6801;53.018;11.560;2023-07-31T08:01:49;2.60;;;0.60;;
13457;SDS011;6801;53.018;11.560;2023-07-31T08:04:16;1.00;;;0.68;;
13457;SDS011;6801;53.018;11.560;2023-07-31T08:06:43;2.30;;;0.70;;
13457;SDS011;6801;53.018;11.560;2023-07-31T08:09:10;0.90;;;0.45;;
13457;SDS011;6801;53.018;11.560;2023-07-31T08:11:37;1.13;;;0.63;;
13457;SDS011;6801;53.018;11.560;2023-07-31T08:14:04;1.10;;;0.50;;
13457;SDS011;6801;53.018;11.560;2023-07-31T08:16:31;1.00;;;0.60;;
13457;SDS011;6801;53.018;11.560;2023-07-31T08:19:00;1.38;;;0.55;;
13457;SDS011;6801;53.018;11.560;2023-07-31T08:21:27;1.10;;;0.50;;
13457;SDS011;6801;53.018;11.560;2023-07-31T08:23:55;1.02;;;0.40;;
13457;SDS011;6801;53.018;11.560;2023-07-31T08:26:22;1.23;;;0.45;;
13457;SDS011;6801;53.018;11.560;2023-07-31T08:28:49;0.82;;;0.40;;
13457;SDS011;6801;53.018;11.560;2023-07-31T08:31:16;0.60;;;0.40;;
13457;SDS011;6801;53.018;11.560;2023-07-31T08:33:43;2.05;;;0.30;;
13457;SDS011;6801;53.018;11.560;2023-07-31T08:36:12;3.80;;;0.30;;
13457;SDS011;6801;53.018;11.560;2023-07-31T08:38:39;0.77;;;0.30;;
13457;SDS011;6801;53.018;11.560;2023-07-31T08:41:06;1.52;;;0.20;;
13457;SDS011;6801;53.018;11.560;2023-07-31T08:43:34;0.65;;;0.30;;
13457;SDS011;6801;53.018;11.560;2023-07-31T08:46:02;0.68;;;0.25;;
13457;SDS011;6801;53.018;11.560;2023-07-31T08:48:31;0.50;;;0.30;;
13457;SDS011;6801;53.018;11.560;2023-07-31T08:50:58;0.28;;;0.20;;
13457;SDS011;6801;53.018;11.560;2023-07-31T08:53:27;0.15;;;0.15;;
13457;SDS011;6801;53.018;11.560;2023-07-31T08:55:54;0.85;;;0.30;;
13457;SDS011;6801;53.018;11.560;2023-07-31T08:58:22;0.50;;;0.20;;
13457;SDS011;6801;53.018;11.560;2023-07-31T09:00:51;0.93;;;0.15;;
13457;SDS011;6801;53.018;11.560;2023-07-31T09:03:22;1.00;;;0.20;;
13457;SDS011;6801;53.018;11.560;2023-07-31T09:05:51;0.55;;;0.15;;
13457;SDS011;6801;53.018;11.560;2023-07-31T09:08:21;0.17;;;0.10;;
13457;SDS011;6801;53.018;11.560;2023-07-31T09:10:49;0.13;;;0.10;;
13457;SDS011;6801;53.018;11.560;2023-07-31T09:13:16;0.25;;;0.20;;
13457;SDS011;6801;53.018;11.560;2023-07-31T09:15:44;0.30;;;0.10;;
13457;SDS011;6801;53.018;11.560;2023-07-31T09:18:12;0.40;;;0.20;;
13457;SDS011;6801;53.018;11.560;2023-07-31T09:20:43;1.33;;;0.22;;
13457;SDS011;6801;53.018;11.560;2023-07-31T09:23:11;0.75;;;0.20;;
13457;SDS011;6801;53.018;11.560;2023-07-31T09:25:39;0.88;;;0.30;;
13457;SDS011;6801;53.018;11.560;2023-07-31T09:28:11;0.95;;;0.40;;
13457;SDS011;6801;53.018;11.560;2023-07-31T09:30:45;1.13;;;0.60;;
13457;SDS011;6801;53.018;11.560;2023-07-31T09:33:14;1.05;;;0.50;;
13457;SDS011;6801;53.018;11.560;2023-07-31T09:35:41;2.58;;;0.60;;
13457;SDS011;6801;53.018;11.560;2023-07-31T09:38:09;0.65;;;0.50;;
13457;SDS011;6801;53.018;11.560;2023-07-31T09:40:38;1.35;;;0.65;;
13457;SDS011;6801;53.018;11.560;2023-07-31T09:43:06;1.17;;;0.70;;
13457;SDS011;6801;53.018;11.560;2023-07-31T09:45:37;1.85;;;1.27;;
13457;SDS011;6801;53.018;11.560;2023-07-31T09:48:06;2.85;;;1.17;;
13457;SDS011;6801;53.018;11.560;2023-07-31T09:50:36;2.30;;;1.25;;
13457;SDS011;6801;53.018;11.560;2023-07-31T09:53:04;2.50;;;1.30;;
13457;SDS011;6801;53.018;11.560;2023-07-31T09:55:32;2.80;;;1.20;;
13457;SDS011;6801;53.018;11.560;2023-07-31T09:57:59;4.97;;;1.67;;
13457;SDS011;6801;53.018;11.560;2023-07-31T10:00:30;2.95;;;1.48;;
13457;SDS011;6801;53.018;11.560;2023-07-31T10:03:00;2.58;;;1.80;;
13457;SDS011;6801;53.018;11.560;2023-07-31T10:05:31;5.78;;;1.83;;
13457;SDS011;6801;53.018;11.560;2023-07-31T10:08:01;5.78;;;2.33;;
13457;SDS011;6801;53.018;11.560;2023-07-31T10:10:29;3.20;;;1.48;;
13457;SDS011;6801;53.018;11.560;2023-07-31T10:12:57;4.90;;;2.65;;
13457;SDS011;6801;53.018;11.560;2023-07-31T10:15:27;5.90;;;3.42;;
13457;SDS011;6801;53.018;11.560;2023-07-31T10:17:55;3.90;;;2.65;;
13457;SDS011;6801;53.018;11.560;2023-07-31T10:20:24;5.07;;;2.80;;
13457;SDS011;6801;53.018;11.560;2023-07-31T10:22:52;6.13;;;3.20;;
13457;SDS011;6801;53.018;11.560;2023-07-31T10:25:21;5.25;;;3.15;;
13457;SDS011;6801;53.018;11.560;2023-07-31T10:27:48;6.40;;;3.22;;
13457;SDS011;6801;53.018;11.560;2023-07-31T10:30:18;6.35;;;3.42;;
13457;SDS011;6801;53.018;11.560;2023-07-31T10:32:48;8.73;;;4.07;;
13457;SDS011;6801;53.018;11.560;2023-07-31T10:35:17;7.00;;;3.17;;
13457;SDS011;6801;53.018;11.560;2023-07-31T10:37:48;6.63;;;3.20;;
13457;SDS011;6801;53.018;11.560;2023-07-31T10:40:16;5.30;;;3.13;;
13457;SDS011;6801;53.018;11.560;2023-07-31T10:42:45;8.40;;;3.15;;
13457;SDS011;6801;53.018;11.560;2023-07-31T10:45:14;8.80;;;4.10;;
13457;SDS011;6801;53.018;11.560;2023-07-31T10:47:57;6.05;;;2.90;;
13457;SDS011;6801;53.018;11.560;2023-07-31T10:50:27;8.07;;;3.38;;
13457;SDS011;6801;53.018;11.560;2023-07-31T10:52:59;8.15;;;4.47;;
13457;SDS011;6801;53.018;11.560;2023-07-31T10:55:30;8.13;;;3.93;;
13457;SDS011;6801;53.018;11.560;2023-07-31T10:58:05;6.72;;;3.63;;
13457;SDS011;6801;53.018;11.560;2023-07-31T11:00:33;9.75;;;4.65;;
13457;SDS011;6801;53.018;11.560;2023-07-31T11:03:03;7.20;;;3.83;;
13457;SDS011;6801;53.018;11.560;2023-07-31T11:05:41;7.33;;;4.10;;
13457;SDS011;6801;53.018;11.560;2023-07-31T11:08:15;7.18;;;3.75;;
13457;SDS011;6801;53.018;11.560;2023-07-31T11:10:44;10.27;;;4.38;;
13457;SDS011;6801;53.018;11.560;2023-07-31T11:13:12;8.25;;;3.88;;
13457;SDS011;6801;53.018;11.560;2023-07-31T11:15:40;8.35;;;4.20;;
13457;SDS011;6801;53.018;11.560;2023-07-31T11:18:07;9.05;;;4.45;;
13457;SDS011;6801;53.018;11.560;2023-07-31T11:20:36;8.40;;;3.50;;
13457;SDS011;6801;53.018;11.560;2023-07-31T11:23:05;8.40;;;3.35;;
13457;SDS011;6801;53.018;11.560;2023-07-31T11:25:35;7.57;;;3.53;;
13457;SDS011;6801;53.018;11.560;2023-07-31T11:28:04;8.32;;;3.67;;
13457;SDS011;6801;53.018;11.560;2023-07-31T11:30:31;7.07;;;3.60;;
13457;SDS011;6801;53.018;11.560;2023-07-31T11:33:00;6.25;;;3.55;;
13457;SDS011;6801;53.018;11.560;2023-07-31T11:35:29;6.95;;;2.95;;
13457;SDS011;6801;53.018;11.560;2023-07-31T11:37:57;6.68;;;2.75;;
13457;SDS011;6801;53.018;11.560;2023-07-31T11:40:25;8.18;;;3.45;;
13457;SDS011;6801;53.018;11.560;2023-07-31T11:42:56;7.65;;;3.65;;
13457;SDS011;6801;53.018;11.560;2023-07-31T11:45:25;9.98;;;3.85;;
13457;SDS011;6801;53.018;11.560;2023-07-31T11:47:56;5.45;;;3.10;;
13457;SDS011;6801;53.018;11.560;2023-07-31T11:50:23;5.95;;;2.95;;
13457;SDS011;6801;53.018;11.560;2023-07-31T11:52:52;6.50;;;2.45;;
13457;SDS011;6801;53.018;11.560;2023-07-31T11:55:23;4.70;;;2.60;;
13457;SDS011;6801;53.018;11.560;2023-07-31T11:57:50;6.47;;;3.08;;
13457;SDS011;6801;53.018;11.560;2023-07-31T12:00:20;3.97;;;2.55;;
13457;SDS011;6801;53.018;11.560;2023-07-31T12:02:48;7.20;;;3.00;;
13457;SDS011;6801;53.018;11.560;2023-07-31T12:05:16;5.53;;;1.92;;
13457;SDS011;6801;53.018;11.560;2023-07-31T12:07:47;4.15;;;1.80;;
13457;SDS011;6801;53.018;11.560;2023-07-31T12:10:26;4.63;;;2.10;;
13457;SDS011;6801;53.018;11.560;2023-07-31T12:12:58;3.67;;;2.13;;
13457;SDS011;6801;53.018;11.560;2023-07-31T12:15:35;3.53;;;1.95;;
13457;SDS011;6801;53.018;11.560;2023-07-31T12:18:05;4.55;;;1.98;;
13457;SDS011;6801;53.018;11.560;2023-07-31T12:20:33;4.22;;;2.15;;
13457;SDS011;6801;53.018;11.560;2023-07-31T12:23:01;4.55;;;2.22;;
13457;SDS011;6801;53.018;11.560;2023-07-31T12:25:32;4.13;;;1.75;;
13457;SDS011;6801;53.018;11.560;2023-07-31T12:28:05;4.85;;;1.77;;
13457;SDS011;6801;53.018;11.560;2023-07-31T12:30:38;3.53;;;1.65;;
13457;SDS011;6801;53.018;11.560;2023-07-31T12:33:06;4.22;;;1.65;;
13457;SDS011;6801;53.018;11.560;2023-07-31T12:35:40;4.07;;;1.77;;
13457;SDS011;6801;53.018;11.560;2023-07-31T12:38:09;4.03;;;1.88;;
13457;SDS011;6801;53.018;11.560;2023-07-31T12:40:38;5.95;;;1.95;;
13457;SDS011;6801;53.018;11.560;2023-07-31T12:43:05;3.72;;;1.75;;
13457;SDS011;6801;53.018;11.560;2023-07-31T12:45:33;3.22;;;1.60;;
13457;SDS011;6801;53.018;11.560;2023-07-31T12:48:02;4.30;;;1.63;;
13457;SDS011;6801;53.018;11.560;2023-07-31T12:50:29;4.82;;;1.75;;
13457;SDS011;6801;53.018;11.560;2023-07-31T12:52:56;3.40;;;1.70;;
13457;SDS011;6801;53.018;11.560;2023-07-31T12:55:24;3.70;;;1.95;;
13457;SDS011;6801;53.018;11.560;2023-07-31T12:57:51;2.35;;;1.70;;
13457;SDS011;6801;53.018;11.560;2023-07-31T13:00:18;3.08;;;1.80;;
13457;SDS011;6801;53.018;11.560;2023-07-31T13:02:45;3.92;;;1.98;;
13457;SDS011;6801;53.018;11.560;2023-07-31T13:05:14;3.55;;;1.88;;
13457;SDS011;6801;53.018;11.560;2023-07-31T13:07:41;3.58;;;1.65;;
13457;SDS011;6801;53.018;11.560;2023-07-31T13:10:08;3.60;;;1.50;;
13457;SDS011;6801;53.018;11.560;2023-07-31T13:12:35;3.88;;;1.88;;
13457;SDS011;6801;53.018;11.560;2023-07-31T13:15:03;2.38;;;1.40;;
13457;SDS011;6801;53.018;11.560;2023-07-31T13:17:30;3.42;;;1.40;;
13457;SDS011;6801;53.018;11.560;2023-07-31T13:19:57;3.97;;;1.73;;
13457;SDS011;6801;53.018;11.560;2023-07-31T13:22:26;3.38;;;1.25;;
13457;SDS011;6801;53.018;11.560;2023-07-31T13:24:53;3.20;;;1.30;;
13457;SDS011;6801;53.018;11.560;2023-07-31T13:27:21;3.28;;;1.92;;
13457;SDS011;6801;53.018;11.560;2023-07-31T13:29:49;3.90;;;1.80;;
13457;SDS011;6801;53.018;11.560;2023-07-31T13:32:17;2.78;;;1.17;;
13457;SDS011;6801;53.018;11.560;2023-07-31T13:34:45;2.88;;;1.48;;
13457;SDS011;6801;53.018;11.560;2023-07-31T13:37:12;1.90;;;1.50;;
13457;SDS011;6801;53.018;11.560;2023-07-31T13:39:41;2.28;;;1.25;;
13457;SDS011;6801;53.018;11.560;2023-07-31T13:42:08;2.78;;;1.10;;
13457;SDS011;6801;53.018;11.560;2023-07-31T13:44:37;1.92;;;1.30;;
13457;SDS011;6801;53.018;11.560;2023-07-31T13:47:04;2.00;;;1.05;;
13457;SDS011;6801;53.018;11.560;2023-07-31T13:49:31;4.15;;;1.40;;
13457;SDS011;6801;53.018;11.560;2023-07-31T13:51:59;4.13;;;1.33;;
13457;SDS011;6801;53.018;11.560;2023-07-31T13:54:26;2.45;;;1.23;;
13457;SDS011;6801;53.018;11.560;2023-07-31T13:56:55;3.53;;;0.80;;
13457;SDS011;6801;53.018;11.560;2023-07-31T13:59:22;2.80;;;0.85;;
13457;SDS011;6801;53.018;11.560;2023-07-31T14:01:49;1.20;;;0.80;;
13457;SDS011;6801;53.018;11.560;2023-07-31T14:04:17;2.55;;;1.00;;
13457;SDS011;6801;53.018;11.560;2023-07-31T14:06:44;4.43;;;0.90;;
13457;SDS011;6801;53.018;11.560;2023-07-31T14:09:13;5.88;;;1.45;;
13457;SDS011;6801;53.018;11.560;2023-07-31T14:11:40;1.92;;;0.80;;
13457;SDS011;6801;53.018;11.560;2023-07-31T14:14:09;2.22;;;0.93;;
13457;SDS011;6801;53.018;11.560;2023-07-31T14:16:37;1.92;;;0.93;;
13457;SDS011;6801;53.018;11.560;2023-07-31T14:19:04;1.55;;;0.75;;
13457;SDS011;6801;53.018;11.560;2023-07-31T14:21:32;1.40;;;0.93;;
13457;SDS011;6801;53.018;11.560;2023-07-31T14:23:59;2.25;;;1.20;;
13457;SDS011;6801;53.018;11.560;2023-07-31T14:26:27;2.40;;;1.00;;
13457;SDS011;6801;53.018;11.560;2023-07-31T14:28:54;1.80;;;1.00;;
13457;SDS011;6801;53.018;11.560;2023-07-31T14:31:22;2.05;;;1.17;;
13457;SDS011;6801;53.018;11.560;2023-07-31T14:33:49;1.83;;;0.95;;
13457;SDS011;6801;53.018;11.560;2023-07-31T14:36:16;2.40;;;1.20;;
13457;SDS011;6801;53.018;11.560;2023-07-31T14:38:43;2.67;;;1.00;;
13457;SDS011;6801;53.018;11.560;2023-07-31T14:41:10;2.72;;;1.40;;
13457;SDS011;6801;53.018;11.560;2023-07-31T14:43:38;2.47;;;1.30;;
13457;SDS011;6801;53.018;11.560;2023-07-31T14:46:05;1.25;;;0.88;;
13457;SDS011;6801;53.018;11.560;2023-07-31T14:48:33;1.63;;;1.17;;
13457;SDS011;6801;53.018;11.560;2023-07-31T14:51:00;1.77;;;1.00;;
13457;SDS011;6801;53.018;11.560;2023-07-31T14:53:27;1.92;;;1.10;;